sensor_id;sensor_type;location;lat;lon;timestamp;pressure;altitude;pressure_sealevel;temperature;humidity
6196;BME280;3131;42.630;23.382;2022-09-24T15:42:28;94644.91;;;22.60;34.22
6196;BME280;3131;42.630;23.382;2022-09-24T15:44:58;94653.42;;;22.34;35.01
6196;BME280;3131;42.630;23.382;2022-09-24T15:47:27;94657.59;;;21.87;36.16
6196;BME280;3131;42.630;23.382;2022-09-24T15:50:00;94658.50;;;21.47;36.27
6196;BME280;3131;42.630;23.382;2022-09-24T15:55:16;94658.84;;;20.74;38.42
6196;BME280;3131;42.630;23.382;2022-09-24T15:57:46;94657.28;;;20.39;39.25
6196;BME280;3131;42.630;23.382;2022-09-24T16:00:20;94655.18;;;19.84;40.80
6196;BME280;3131;42.630;23.382;2022-09-24T16:02:52;94656.11;;;19.53;41.47
6196;BME280;3131;42.630;23.382;2022-09-24T16:05:22;94665.20;;;18.81;43.22
6196;BME280;3131;42.630;23.382;2022-09-24T16:07:51;94665.20;;;18.81;43.22
6196;BME280;3131;42.630;23.382;2022-09-24T16:10:24;94662.77;;;18.48;44.58
6196;BME280;3131;42.630;23.382;2022-09-24T16:12:54;94672.44;;;18.13;46.34
6196;BME280;3131;42.630;23.382;2022-09-24T16:15:23;94679.95;;;18.00;47.12
6196;BME280;3131;42.630;23.382;2022-09-24T16:17:52;94671.31;;;17.74;48.39
6196;BME280;3131;42.630;23.382;2022-09-24T16:20:22;94670.38;;;17.51;49.47
6196;BME280;3131;42.630;23.382;2022-09-24T16:22:51;94679.95;;;17.30;50.91
6196;BME280;3131;42.630;23.382;2022-09-24T16:25:21;94679.19;;;17.00;53.46
6196;BME280;3131;42.630;23.382;2022-09-24T16:27:51;94675.91;;;16.84;54.79
6196;BME280;3131;42.630;23.382;2022-09-24T16:30:20;94676.85;;;16.68;56.34
6196;BME280;3131;42.630;23.382;2022-09-24T16:32:50;94677.45;;;16.46;58.21
6196;BME280;3131;42.630;23.382;2022-09-24T16:35:19;94681.26;;;16.37;60.25
6196;BME280;3131;42.630;23.382;2022-09-24T16:37:48;94681.50;;;16.24;61.34
6196;BME280;3131;42.630;23.382;2022-09-24T16:40:18;94678.78;;;16.16;62.18
6196;BME280;3131;42.630;23.382;2022-09-24T16:42:47;94688.94;;;16.06;64.78
6196;BME280;3131;42.630;23.382;2022-09-24T16:45:17;94693.05;;;15.97;66.17
6196;BME280;3131;42.630;23.382;2022-09-24T16:47:46;94695.52;;;15.93;67.77
6196;BME280;3131;42.630;23.382;2022-09-24T16:50:16;94689.13;;;15.84;68.04
6196;BME280;3131;42.630;23.382;2022-09-24T16:52:46;94688.58;;;15.80;68.63
6196;BME280;3131;42.630;23.382;2022-09-24T16:57:57;94693.70;;;15.74;70.04
6196;BME280;3131;42.630;23.382;2022-09-24T17:00:27;94698.56;;;15.72;69.96
6196;BME280;3131;42.630;23.382;2022-09-24T17:05:47;94699.11;;;15.75;69.86
6196;BME280;3131;42.630;23.382;2022-09-24T17:10:54;94709.23;;;15.60;70.90
6196;BME280;3131;42.630;23.382;2022-09-24T17:13:23;94710.67;;;15.53;72.40
6196;BME280;3131;42.630;23.382;2022-09-24T17:15:52;94713.83;;;15.51;72.04
6196;BME280;3131;42.630;23.382;2022-09-24T17:18:22;94713.16;;;15.43;72.42
6196;BME280;3131;42.630;23.382;2022-09-24T17:21:00;94718.49;;;15.40;72.50
6196;BME280;3131;42.630;23.382;2022-09-24T17:23:30;94721.66;;;15.32;72.49
6196;BME280;3131;42.630;23.382;2022-09-24T17:28:51;94726.50;;;15.09;77.82
6196;BME280;3131;42.630;23.382;2022-09-24T17:31:22;94729.38;;;14.78;81.69
6196;BME280;3131;42.630;23.382;2022-09-24T17:33:55;94733.84;;;14.59;88.14
6196;BME280;3131;42.630;23.382;2022-09-24T17:36:25;94730.81;;;14.43;89.69
6196;BME280;3131;42.630;23.382;2022-09-24T17:41:39;94734.79;;;14.24;91.05
6196;BME280;3131;42.630;23.382;2022-09-24T17:46:56;94732.60;;;14.03;92.96
6196;BME280;3131;42.630;23.382;2022-09-24T17:49:26;94729.48;;;13.88;93.91
6196;BME280;3131;42.630;23.382;2022-09-24T17:54:36;94746.31;;;13.83;96.08
6196;BME280;3131;42.630;23.382;2022-09-24T17:57:06;94742.25;;;13.69;96.21
6196;BME280;3131;42.630;23.382;2022-09-24T17:59:35;94742.16;;;13.77;94.03
6196;BME280;3131;42.630;23.382;2022-09-24T18:02:05;94749.30;;;13.77;92.29
6196;BME280;3131;42.630;23.382;2022-09-24T18:04:34;94750.66;;;13.70;92.42
6196;BME280;3131;42.630;23.382;2022-09-24T18:09:45;94748.45;;;13.60;95.25
6196;BME280;3131;42.630;23.382;2022-09-24T18:15:04;94751.44;;;13.54;96.91
6196;BME280;3131;42.630;23.382;2022-09-24T18:17:34;94754.05;;;13.41;98.88
6196;BME280;3131;42.630;23.382;2022-09-24T18:20:05;94750.84;;;13.44;98.56
6196;BME280;3131;42.630;23.382;2022-09-24T18:22:34;94756.59;;;13.41;99.04
6196;BME280;3131;42.630;23.382;2022-09-24T18:25:04;94753.60;;;13.36;98.57
6196;BME280;3131;42.630;23.382;2022-09-24T18:30:14;94756.64;;;13.22;100.00
6196;BME280;3131;42.630;23.382;2022-09-24T18:32:46;94759.22;;;13.04;100.00
6196;BME280;3131;42.630;23.382;2022-09-24T18:35:17;94759.28;;;12.91;100.00
6196;BME280;3131;42.630;23.382;2022-09-24T18:37:46;94759.49;;;12.88;100.00
6196;BME280;3131;42.630;23.382;2022-09-24T18:40:16;94760.59;;;12.78;100.00
6196;BME280;3131;42.630;23.382;2022-09-24T18:42:46;94762.59;;;12.68;100.00
6196;BME280;3131;42.630;23.382;2022-09-24T18:45:17;94770.56;;;12.74;100.00
6196;BME280;3131;42.630;23.382;2022-09-24T18:47:46;94769.59;;;12.64;100.00
6196;BME280;3131;42.630;23.382;2022-09-24T18:50:16;94762.08;;;12.57;100.00
6196;BME280;3131;42.630;23.382;2022-09-24T18:52:45;94758.37;;;12.50;100.00
6196;BME280;3131;42.630;23.382;2022-09-24T18:55:15;94769.80;;;12.43;100.00
6196;BME280;3131;42.630;23.382;2022-09-24T18:57:44;94767.84;;;12.41;100.00
6196;BME280;3131;42.630;23.382;2022-09-24T19:02:59;94753.05;;;12.29;100.00
6196;BME280;3131;42.630;23.382;2022-09-24T19:08:08;94752.31;;;12.21;100.00
6196;BME280;3131;42.630;23.382;2022-09-24T19:10:38;94757.20;;;12.17;100.00
6196;BME280;3131;42.630;23.382;2022-09-24T19:15:48;94755.06;;;12.24;100.00
6196;BME280;3131;42.630;23.382;2022-09-24T19:20:58;94756.59;;;12.26;100.00
6196;BME280;3131;42.630;23.382;2022-09-24T19:26:16;94763.91;;;12.18;100.00
6196;BME280;3131;42.630;23.382;2022-09-24T19:31:33;94764.01;;;12.04;100.00
6196;BME280;3131;42.630;23.382;2022-09-24T19:34:05;94767.14;;;11.95;100.00
6196;BME280;3131;42.630;23.382;2022-09-24T19:36:35;94765.28;;;11.91;100.00
6196;BME280;3131;42.630;23.382;2022-09-24T19:39:07;94768.93;;;11.87;100.00
6196;BME280;3131;42.630;23.382;2022-09-24T19:44:24;94761.39;;;12.05;100.00
6196;BME280;3131;42.630;23.382;2022-09-24T19:46:53;94768.14;;;12.05;100.00
6196;BME280;3131;42.630;23.382;2022-09-24T19:49:23;94774.05;;;12.11;100.00
6196;BME280;3131;42.630;23.382;2022-09-24T19:54:53;94767.98;;;12.14;100.00
6196;BME280;3131;42.630;23.382;2022-09-24T19:57:22;94771.30;;;12.08;100.00
6196;BME280;3131;42.630;23.382;2022-09-24T20:02:32;94769.52;;;12.03;100.00
6196;BME280;3131;42.630;23.382;2022-09-24T20:07:42;94775.05;;;11.90;100.00
6196;BME280;3131;42.630;23.382;2022-09-24T20:12:59;94776.27;;;11.65;100.00
6196;BME280;3131;42.630;23.382;2022-09-24T20:15:29;94774.55;;;11.65;100.00
6196;BME280;3131;42.630;23.382;2022-09-24T20:20:39;94778.28;;;11.72;100.00
6196;BME280;3131;42.630;23.382;2022-09-24T20:23:09;94782.22;;;11.63;100.00
6196;BME280;3131;42.630;23.382;2022-09-24T20:28:20;94782.80;;;11.54;100.00
6196;BME280;3131;42.630;23.382;2022-09-24T20:30:49;94781.98;;;11.41;100.00
6196;BME280;3131;42.630;23.382;2022-09-24T20:33:18;94784.03;;;11.29;100.00
6196;BME280;3131;42.630;23.382;2022-09-24T20:35:47;94787.59;;;11.19;100.00
6196;BME280;3131;42.630;23.382;2022-09-24T20:38:16;94787.02;;;11.08;100.00
6196;BME280;3131;42.630;23.382;2022-09-24T20:40:45;94790.84;;;11.01;100.00
6196;BME280;3131;42.630;23.382;2022-09-24T20:43:14;94786.67;;;11.00;100.00
6196;BME280;3131;42.630;23.382;2022-09-24T20:45:44;94784.34;;;11.04;100.00
6196;BME280;3131;42.630;23.382;2022-09-24T20:48:14;94785.68;;;11.03;100.00
6196;BME280;3131;42.630;23.382;2022-09-24T20:50:43;94799.14;;;10.96;100.00
6196;BME280;3131;42.630;23.382;2022-09-24T20:53:13;94793.36;;;10.94;100.00
6196;BME280;3131;42.630;23.382;2022-09-24T20:55:42;94798.82;;;10.81;100.00
6196;BME280;3131;42.630;23.382;2022-09-24T20:58:11;94795.41;;;10.75;100.00
6196;BME280;3131;42.630;23.382;2022-09-24T21:00:41;94796.80;;;10.93;100.00
6196;BME280;3131;42.630;23.382;2022-09-24T21:03:17;94788.92;;;10.85;100.00
6196;BME280;3131;42.630;23.382;2022-09-24T21:05:46;94784.62;;;10.73;100.00
6196;BME280;3131;42.630;23.382;2022-09-24T21:08:15;94785.27;;;10.69;100.00
6196;BME280;3131;42.630;23.382;2022-09-24T21:13:25;94791.11;;;10.62;100.00
6196;BME280;3131;42.630;23.382;2022-09-24T21:15:57;94787.55;;;10.59;100.00
6196;BME280;3131;42.630;23.382;2022-09-24T21:18:29;94790.74;;;10.76;100.00
6196;BME280;3131;42.630;23.382;2022-09-24T21:21:03;94794.20;;;10.95;100.00
6196;BME280;3131;42.630;23.382;2022-09-24T21:23:33;94794.39;;;10.91;100.00
6196;BME280;3131;42.630;23.382;2022-09-24T21:26:09;94797.88;;;10.96;100.00
6196;BME280;3131;42.630;23.382;2022-09-24T21:28:40;94796.95;;;11.04;100.00
6196;BME280;3131;42.630;23.382;2022-09-24T21:31:10;94794.28;;;10.93;100.00
6196;BME280;3131;42.630;23.382;2022-09-24T21:36:24;94791.47;;;10.71;100.00
6196;BME280;3131;42.630;23.382;2022-09-24T21:38:57;94785.53;;;10.64;100.00
6196;BME280;3131;42.630;23.382;2022-09-24T21:41:29;94786.07;;;10.69;100.00
6196;BME280;3131;42.630;23.382;2022-09-24T21:43:58;94783.62;;;10.68;100.00
6196;BME280;3131;42.630;23.382;2022-09-24T21:46:28;94782.98;;;10.72;100.00
6196;BME280;3131;42.630;23.382;2022-09-24T21:48:58;94775.80;;;10.73;100.00
6196;BME280;3131;42.630;23.382;2022-09-24T21:51:29;94776.58;;;10.80;100.00
6196;BME280;3131;42.630;23.382;2022-09-24T21:53:59;94779.63;;;10.78;100.00
6196;BME280;3131;42.630;23.382;2022-09-24T21:56:30;94776.33;;;10.71;100.00
6196;BME280;3131;42.630;23.382;2022-09-24T21:59:00;94774.19;;;10.64;100.00
6196;BME280;3131;42.630;23.382;2022-09-24T22:01:32;94776.81;;;10.63;100.00
6196;BME280;3131;42.630;23.382;2022-09-24T22:04:02;94776.19;;;10.52;100.00
6196;BME280;3131;42.630;23.382;2022-09-24T22:06:33;94782.72;;;10.35;100.00
6196;BME280;3131;42.630;23.382;2022-09-24T22:09:04;94779.47;;;10.18;100.00
6196;BME280;3131;42.630;23.382;2022-09-24T22:11:34;94776.23;;;10.09;100.00
6196;BME280;3131;42.630;23.382;2022-09-24T22:14:05;94780.81;;;10.10;100.00
6196;BME280;3131;42.630;23.382;2022-09-24T22:16:36;94780.01;;;10.09;100.00
6196;BME280;3131;42.630;23.382;2022-09-24T22:19:06;94779.73;;;10.07;100.00
6196;BME280;3131;42.630;23.382;2022-09-24T22:21:36;94783.52;;;9.99;100.00
6196;BME280;3131;42.630;23.382;2022-09-24T22:24:07;94782.52;;;9.95;100.00
6196;BME280;3131;42.630;23.382;2022-09-24T22:26:36;94788.92;;;9.93;100.00
6196;BME280;3131;42.630;23.382;2022-09-24T22:29:06;94788.98;;;9.92;100.00
6196;BME280;3131;42.630;23.382;2022-09-24T22:31:35;94792.95;;;9.89;100.00
6196;BME280;3131;42.630;23.382;2022-09-24T22:34:05;94787.38;;;9.84;100.00
6196;BME280;3131;42.630;23.382;2022-09-24T22:36:52;94787.10;;;9.81;100.00
6196;BME280;3131;42.630;23.382;2022-09-24T22:39:21;94784.77;;;9.78;100.00
6196;BME280;3131;42.630;23.382;2022-09-24T22:41:51;94784.83;;;9.76;100.00
6196;BME280;3131;42.630;23.382;2022-09-24T22:44:21;94787.45;;;9.75;100.00
6196;BME280;3131;42.630;23.382;2022-09-24T22:47:00;94791.77;;;9.73;100.00
6196;BME280;3131;42.630;23.382;2022-09-24T22:49:29;94788.89;;;9.72;100.00
6196;BME280;3131;42.630;23.382;2022-09-24T22:51:59;94787.35;;;9.76;100.00
6196;BME280;3131;42.630;23.382;2022-09-24T22:54:29;94787.55;;;9.88;100.00
6196;BME280;3131;42.630;23.382;2022-09-24T22:56:58;94791.52;;;9.85;100.00
6196;BME280;3131;42.630;23.382;2022-09-24T22:59:27;94793.30;;;9.83;100.00
6196;BME280;3131;42.630;23.382;2022-09-24T23:01:56;94790.36;;;9.83;100.00
6196;BME280;3131;42.630;23.382;2022-09-24T23:04:26;94786.30;;;9.81;100.00
6196;BME280;3131;42.630;23.382;2022-09-24T23:06:55;94783.95;;;9.78;100.00
6196;BME280;3131;42.630;23.382;2022-09-24T23:09:24;94791.52;;;9.78;100.00
6196;BME280;3131;42.630;23.382;2022-09-24T23:11:54;94791.77;;;9.73;100.00
6196;BME280;3131;42.630;23.382;2022-09-24T23:14:24;94785.75;;;9.68;100.00
6196;BME280;3131;42.630;23.382;2022-09-24T23:16:53;94790.84;;;9.60;100.00
6196;BME280;3131;42.630;23.382;2022-09-24T23:19:24;94793.19;;;9.56;100.00
6196;BME280;3131;42.630;23.382;2022-09-24T23:21:56;94790.95;;;9.58;100.00
6196;BME280;3131;42.630;23.382;2022-09-24T23:24:25;94791.55;;;9.54;100.00
6196;BME280;3131;42.630;23.382;2022-09-24T23:26:54;94789.86;;;9.55;100.00
6196;BME280;3131;42.630;23.382;2022-09-24T23:29:24;94783.81;;;9.50;100.00
6196;BME280;3131;42.630;23.382;2022-09-24T23:31:53;94786.95;;;9.47;100.00
6196;BME280;3131;42.630;23.382;2022-09-24T23:34:23;94783.36;;;9.44;100.00
6196;BME280;3131;42.630;23.382;2022-09-24T23:36:52;94777.00;;;9.52;100.00
6196;BME280;3131;42.630;23.382;2022-09-24T23:39:21;94782.04;;;9.67;100.00
6196;BME280;3131;42.630;23.382;2022-09-24T23:41:51;94785.47;;;9.73;100.00
6196;BME280;3131;42.630;23.382;2022-09-24T23:44:20;94780.70;;;9.68;100.00
6196;BME280;3131;42.630;23.382;2022-09-24T23:46:49;94781.41;;;9.63;100.00
6196;BME280;3131;42.630;23.382;2022-09-24T23:49:19;94785.08;;;9.58;100.00
6196;BME280;3131;42.630;23.382;2022-09-24T23:51:49;94787.45;;;9.75;100.00
6196;BME280;3131;42.630;23.382;2022-09-24T23:54:19;94790.36;;;9.83;100.00
6196;BME280;3131;42.630;23.382;2022-09-24T23:56:48;94787.55;;;9.88;100.00
6196;BME280;3131;42.630;23.382;2022-09-24T23:59:18;94787.83;;;9.90;100.00
